CheckWX is a tool to help pilots better visualize weather data.  It is not intended as a substitute for an official pre-flight weather briefing.

07:22:41 UTC

KAXN TAF
Chandler Field Airport
Alexandria, Minnesota, USA
KAXN 241133Z 2412/2512 11006KT 5SM BR SCT035 BKN045 TEMPO 2412/2414 1/4SM FG VV002 FM241400 13008KT 6SM -SHRA BR OVC035 TEMPO 2414/2418 BKN020 FM241800 15007KT P6SM BKN035 FM250600 VRB04KT P6SM BKN028 FM251100 32005KT 3SM BR BKN010

May-24@
12:00 UTC

May-24 @ 12:00 UTC

May-24@
14:00 UTC

May-24 @ 14:00 UTC

TAF KAXN 241133Z 2412/2512 11006KT 5SM BR SCT035 BKN045

Expired

Wind
  • 110° at 6 KTS
Conditions
Mist
Cloud Levels
  • Scattered at 3,500' AGL
  • Broken at 4,500' AGL

May-24@
12:00 UTC

May-24 @ 12:00 UTC

May-24@
14:00 UTC

May-24 @ 14:00 UTC

TEMPO 2412/2414 1/4SM FG VV002

Expired

Conditions
Fog
Cloud Levels
  • Vertical visibility

May-24@
14:00 UTC

May-24 @ 14:00 UTC

May-24@
18:00 UTC

May-24 @ 18:00 UTC

FM241400 13008KT 6SM -SHRA BR OVC035

Expired

Wind
  • 130° at 8 KTS
Conditions
Light Showers, Rain, Mist
Cloud Levels
  • Overcast at 3,500' AGL

May-24@
14:00 UTC

May-24 @ 14:00 UTC

May-24@
18:00 UTC

May-24 @ 18:00 UTC

TEMPO 2414/2418 BKN020

Expired

Cloud Levels
  • Broken at 2,000' AGL

May-24@
18:00 UTC

May-24 @ 18:00 UTC

May-25@
06:00 UTC

May-25 @ 06:00 UTC

FM241800 15007KT P6SM BKN035

Expired

Wind
  • 150° at 7 KTS
Cloud Levels
  • Broken at 3,500' AGL

May-25@
06:00 UTC

May-25 @ 06:00 UTC

May-25@
11:00 UTC

May-25 @ 11:00 UTC

FM250600 VRB04KT P6SM BKN028

From

From Standard forecast or significant change

Wind
  • Variable at 4 KTS
Cloud Levels
  • Broken at 2,800' AGL

May-25@
11:00 UTC

May-25 @ 11:00 UTC

May-25@
12:00 UTC

May-25 @ 12:00 UTC

FM251100 32005KT 3SM BR BKN010

From

From Standard forecast or significant change

Wind
  • 320° at 5 KTS
Conditions
Mist
Cloud Levels
  • Broken at 1,000' AGL